Time;durP1;ratioP1;P1;durP2;ratioP2;P2;SDS_P1;SDS_P2;PMS_P1;PMS_P2;Temp;Humidity;BMP_temperature;BMP_pressure;BME280_temperature;BME280_humidity;BME280_pressure;Samples;Min_cycle;Max_cycle;Signal;HPM_P1;HPM_P2
2021/10/01 00:02:00;;;;;;;8.60;1.92;;;13.60;84.10;;;;;;5108815;27;20043;-62
2021/10/01 00:04:26;;;;;;;7.35;1.95;;;13.60;84.20;;;;;;5100120;27;20035;-63
2021/10/01 00:06:52;;;;;;;8.23;1.60;;;13.50;84.20;;;;;;5106843;27;20015;-62
2021/10/01 00:09:18;;;;;;;3.47;1.40;;;13.50;84.20;;;;;;5095894;27;20047;-62
2021/10/01 00:11:49;;;;;;;4.97;1.60;;;13.50;84.40;;;;;;5101815;27;20039;-62
2021/10/01 00:14:15;;;;;;;4.32;1.40;;;13.50;84.70;;;;;;5097039;27;20039;-63
2021/10/01 00:16:41;;;;;;;5.15;1.00;;;13.60;84.70;;;;;;5107756;27;20049;-62
2021/10/01 00:19:06;;;;;;;7.15;1.60;;;13.60;84.00;;;;;;5109510;27;20483;-63
2021/10/01 00:21:32;;;;;;;6.75;1.40;;;13.60;83.80;;;;;;5110387;27;20132;-62
2021/10/01 00:23:58;;;;;;;8.30;1.50;;;13.60;83.60;;;;;;5108595;27;20105;-63
2021/10/01 00:26:24;;;;;;;10.43;1.63;;;13.60;83.70;;;;;;5104753;27;20046;-62
2021/10/01 00:28:49;;;;;;;8.73;1.65;;;13.60;83.40;;;;;;5108209;27;20070;-63
2021/10/01 00:31:15;;;;;;;5.38;1.00;;;13.60;83.80;;;;;;5112271;27;22291;-62
2021/10/01 00:33:41;;;;;;;7.22;1.10;;;13.80;83.70;;;;;;5105690;27;20981;-62
2021/10/01 00:36:06;;;;;;;4.40;1.30;;;13.90;83.30;;;;;;5110526;27;20036;-62
2021/10/01 00:38:32;;;;;;;7.95;1.35;;;14.00;82.90;;;;;;5108037;27;20104;-62
2021/10/01 00:40:57;;;;;;;6.95;1.63;;;14.20;82.30;;;;;;5105783;27;20051;-62
2021/10/01 00:43:23;;;;;;;7.20;1.83;;;14.30;82.10;;;;;;5104726;27;20048;-62
2021/10/01 00:45:49;;;;;;;4.60;0.95;;;14.40;81.50;;;;;;5094062;27;20093;-62
2021/10/01 00:48:15;;;;;;;5.85;1.40;;;14.40;80.80;;;;;;5108717;27;20043;-62
2021/10/01 00:50:41;;;;;;;9.23;1.70;;;14.40;80.60;;;;;;5109368;27;20046;-62
2021/10/01 00:53:06;;;;;;;6.60;1.42;;;14.40;80.40;;;;;;5107229;27;20043;-62
2021/10/01 00:55:33;;;;;;;5.07;1.15;;;14.40;80.50;;;;;;5110840;27;20175;-62
2021/10/01 00:57:58;;;;;;;6.10;1.30;;;14.30;80.40;;;;;;5093006;27;20695;-62
2021/10/01 01:00:27;;;;;;;4.60;1.08;;;14.30;80.70;;;;;;5105072;27;20040;-62
2021/10/01 01:02:58;;;;;;;9.77;1.95;;;14.40;80.90;;;;;;5110162;27;21186;-63
2021/10/01 01:05:53;;;;;;;5.15;1.48;;;14.30;80.50;;;;;;5109629;27;20040;-62
2021/10/01 01:08:26;;;;;;;5.85;1.63;;;14.30;80.70;;;;;;5113621;27;20040;-63
2021/10/01 01:10:57;;;;;;;7.85;1.35;;;14.20;81.10;;;;;;5107388;27;20099;-62
2021/10/01 01:13:45;;;;;;;6.68;1.27;;;14.20;81.30;;;;;;5106926;27;20035;-62
2021/10/01 01:16:17;;;;;;;7.55;1.92;;;14.20;81.40;;;;;;5110866;27;20036;-62
2021/10/01 01:18:48;;;;;;;6.60;1.50;;;14.30;81.40;;;;;;5106201;27;20228;-63
2021/10/01 01:21:23;;;;;;;9.18;2.28;;;14.20;81.00;;;;;;5105909;27;20474;-62
2021/10/01 01:24:06;;;;;;;3.90;1.20;;;14.20;81.30;;;;;;5096659;27;20541;-63
2021/10/01 01:26:41;;;;;;;8.15;1.40;;;14.10;81.70;;;;;;5079892;28;20088;-63
2021/10/01 01:29:37;;;;;;;5.03;1.80;;;14.00;81.90;;;;;;5097329;27;20046;-63
2021/10/01 01:32:09;;;;;;;4.22;1.38;;;14.00;82.30;;;;;;5108582;27;20048;-62
2021/10/01 01:34:44;;;;;;;5.05;1.50;;;14.00;82.40;;;;;;5079993;27;20038;-62
2021/10/01 01:37:36;;;;;;;4.03;1.02;;;14.00;82.50;;;;;;5107611;27;20100;-63
2021/10/01 01:40:04;;;;;;;6.85;1.45;;;14.00;82.20;;;;;;5106165;27;20152;-64
2021/10/01 01:42:31;;;;;;;11.35;1.33;;;13.90;82.50;;;;;;5104303;27;20036;-63
2021/10/01 01:44:59;;;;;;;7.70;2.00;;;13.70;82.90;;;;;;5103005;27;20832;-66
2021/10/01 01:47:26;;;;;;;5.97;1.45;;;13.70;83.20;;;;;;5109298;27;20036;-62
2021/10/01 01:49:52;;;;;;;3.75;1.10;;;13.60;83.30;;;;;;5104718;27;20048;-63
2021/10/01 01:52:18;;;;;;;6.70;1.92;;;13.50;83.60;;;;;;5096900;27;20051;-63
2021/10/01 01:54:45;;;;;;;3.53;1.02;;;13.50;84.10;;;;;;5105397;27;20031;-62
2021/10/01 01:57:11;;;;;;;3.53;1.30;;;13.50;83.60;;;;;;5108323;27;20068;-63
2021/10/01 01:59:37;;;;;;;10.25;1.60;;;13.50;83.60;;;;;;5102187;27;20434;-63
2021/10/01 02:02:04;;;;;;;2.88;0.80;;;13.50;83.30;;;;;;5107212;27;20075;-63
2021/10/01 02:04:31;;;;;;;3.92;1.42;;;13.50;83.20;;;;;;5106511;27;20039;-63
2021/10/01 02:06:57;;;;;;;3.72;1.20;;;13.50;83.20;;;;;;5090591;28;20088;-63
2021/10/01 02:09:26;;;;;;;6.93;1.13;;;13.50;83.20;;;;;;5102447;27;20051;-62
2021/10/01 02:11:51;;;;;;;7.22;1.48;;;13.50;83.20;;;;;;5108361;27;20134;-63
2021/10/01 02:14:24;;;;;;;8.05;1.30;;;13.40;83.40;;;;;;5094909;27;20051;-63
2021/10/01 02:16:51;;;;;;;6.07;1.35;;;13.30;83.50;;;;;;5107470;27;20130;-62
2021/10/01 02:19:19;;;;;;;7.18;1.05;;;13.30;83.80;;;;;;5096195;28;20035;-63
2021/10/01 02:21:47;;;;;;;5.93;1.33;;;13.30;83.80;;;;;;5108984;27;20102;-63
2021/10/01 02:24:15;;;;;;;7.93;1.92;;;13.30;83.90;;;;;;5105419;27;20051;-63
2021/10/01 02:26:55;;;;;;;4.82;1.30;;;13.30;83.80;;;;;;5104168;28;20156;-62
2021/10/01 02:29:25;;;;;;;2.65;0.80;;;13.40;83.80;;;;;;5108506;27;20046;-63
2021/10/01 02:32:13;;;;;;;3.25;1.30;;;13.30;84.00;;;;;;5110680;28;20055;-62
2021/10/01 02:34:42;;;;;;;5.68;1.02;;;13.30;83.80;;;;;;5101960;27;20035;-62
2021/10/01 02:37:08;;;;;;;9.43;1.58;;;13.40;84.00;;;;;;5105151;27;20052;-62
2021/10/01 02:39:36;;;;;;;4.05;1.30;;;13.30;83.80;;;;;;5103686;28;20495;-62
2021/10/01 02:42:03;;;;;;;7.82;1.98;;;13.40;84.10;;;;;;5097354;28;20074;-63
2021/10/01 02:44:29;;;;;;;6.22;1.10;;;13.40;83.90;;;;;;5103595;28;20830;-62
2021/10/01 02:46:55;;;;;;;6.80;1.55;;;13.50;83.90;;;;;;5105221;27;20028;-63
2021/10/01 02:49:21;;;;;;;2.70;0.93;;;13.50;83.70;;;;;;5110563;28;20063;-62
2021/10/01 02:51:55;;;;;;;3.95;1.13;;;13.50;83.80;;;;;;5103410;28;20036;-66
2021/10/01 02:54:35;;;;;;;7.72;1.80;;;13.60;83.40;;;;;;5102685;28;20039;-66
2021/10/01 02:57:10;;;;;;;4.28;1.13;;;13.50;83.10;;;;;;5106219;28;20043;-66
2021/10/01 02:59:41;;;;;;;4.72;1.25;;;13.40;83.50;;;;;;5107746;28;20089;-66
2021/10/01 03:02:07;;;;;;;4.65;1.30;;;13.30;83.60;;;;;;5093808;28;20625;-66
2021/10/01 03:04:35;;;;;;;6.40;1.27;;;13.30;83.90;;;;;;5107121;27;20048;-66
2021/10/01 03:07:03;;;;;;;5.20;1.73;;;13.30;84.00;;;;;;5096678;27;20052;-66
2021/10/01 03:09:29;;;;;;;5.78;1.52;;;13.30;84.20;;;;;;5107431;27;20050;-66
2021/10/01 03:11:57;;;;;;;5.75;1.52;;;13.20;84.20;;;;;;5087549;27;20040;-66
2021/10/01 03:14:23;;;;;;;3.97;1.30;;;13.20;84.50;;;;;;5109511;27;20071;-66
2021/10/01 03:16:51;;;;;;;6.05;0.98;;;13.20;84.40;;;;;;5102108;27;20443;-66
2021/10/01 03:19:22;;;;;;;5.47;1.75;;;13.10;84.10;;;;;;5110505;27;20130;-66
2021/10/01 03:21:54;;;;;;;5.20;1.30;;;13.20;84.20;;;;;;5105622;27;20549;-66
2021/10/01 03:24:21;;;;;;;6.40;1.42;;;13.10;84.50;;;;;;5111984;27;20047;-66
2021/10/01 03:26:47;;;;;;;4.55;1.48;;;13.10;84.60;;;;;;5112145;27;20044;-66
2021/10/01 03:29:13;;;;;;;5.70;1.30;;;13.10;84.90;;;;;;5104133;27;20390;-66
2021/10/01 03:31:39;;;;;;;4.95;1.67;;;13.10;85.10;;;;;;5101837;27;20177;-66
2021/10/01 03:34:07;;;;;;;4.80;1.05;;;13.10;85.10;;;;;;5092924;28;20483;-66
2021/10/01 03:36:35;;;;;;;4.38;1.33;;;13.00;85.20;;;;;;5105818;27;20169;-66
2021/10/01 03:39:01;;;;;;;7.72;1.67;;;13.00;85.40;;;;;;5111879;27;20043;-66
2021/10/01 03:41:27;;;;;;;4.45;1.42;;;13.00;85.40;;;;;;5093320;27;20392;-66
2021/10/01 03:43:53;;;;;;;5.75;1.30;;;13.00;85.40;;;;;;5110926;27;20058;-66
2021/10/01 03:46:19;;;;;;;8.38;1.50;;;13.00;85.60;;;;;;5095969;27;20054;-66
2021/10/01 03:48:45;;;;;;;6.53;1.70;;;13.00;85.70;;;;;;5086129;28;20074;-66
2021/10/01 03:51:11;;;;;;;4.30;1.15;;;13.10;85.60;;;;;;5105950;27;20383;-66
2021/10/01 03:53:38;;;;;;;9.10;1.42;;;13.00;85.40;;;;;;5112808;27;20031;-66
2021/10/01 03:56:08;;;;;;;8.02;1.58;;;13.00;85.40;;;;;;5099462;27;20042;-66
2021/10/01 03:58:34;;;;;;;3.05;1.08;;;13.10;85.40;;;;;;5081314;28;20055;-66
2021/10/01 04:00:59;;;;;;;7.57;1.25;;;13.00;85.60;;;;;;5104618;27;20043;-66
2021/10/01 04:03:25;;;;;;;6.15;1.40;;;13.00;85.90;;;;;;5108801;27;20573;-66
2021/10/01 04:05:53;;;;;;;6.22;1.75;;;13.00;86.00;;;;;;5122251;27;20046;-66
2021/10/01 04:08:19;;;;;;;2.35;1.00;;;13.00;86.00;;;;;;5109405;27;20040;-66
2021/10/01 04:10:44;;;;;;;6.35;1.00;;;13.00;86.20;;;;;;5087077;27;20126;-66
2021/10/01 04:13:10;;;;;;;5.05;1.13;;;13.00;86.50;;;;;;5110514;27;20043;-66
2021/10/01 04:15:36;;;;;;;2.70;1.30;;;13.00;86.60;;;;;;5104365;27;20471;-66
2021/10/01 04:18:02;;;;;;;4.53;1.50;;;12.90;86.60;;;;;;5109677;27;20038;-66
2021/10/01 04:20:28;;;;;;;5.78;1.20;;;12.90;86.70;;;;;;5094767;27;20099;-66
2021/10/01 04:22:54;;;;;;;5.50;1.38;;;12.90;86.70;;;;;;5104206;27;20487;-66
2021/10/01 04:25:20;;;;;;;5.18;1.35;;;12.90;87.00;;;;;;5090681;27;20035;-67
2021/10/01 04:27:45;;;;;;;3.65;1.17;;;12.80;87.30;;;;;;5104987;27;20100;-67
2021/10/01 04:30:11;;;;;;;6.75;1.58;;;12.80;87.70;;;;;;5102753;27;20428;-66
2021/10/01 04:32:44;;;;;;;4.35;1.27;;;12.80;88.10;;;;;;5106086;27;20040;-66
2021/10/01 04:35:09;;;;;;;3.13;1.23;;;12.80;88.80;;;;;;5110683;27;20040;-64
2021/10/01 04:37:35;;;;;;;5.38;1.10;;;12.70;89.40;;;;;;5109146;27;20031;-66
2021/10/01 04:40:02;;;;;;;12.93;1.73;;;12.70;89.80;;;;;;5105595;27;20046;-66
2021/10/01 04:42:27;;;;;;;5.40;1.52;;;12.70;89.90;;;;;;5084551;27;20046;-69
2021/10/01 04:44:53;;;;;;;5.20;1.33;;;12.60;90.00;;;;;;5081538;27;20052;-65
2021/10/01 04:47:19;;;;;;;7.07;1.45;;;12.60;90.00;;;;;;5103717;27;20043;-66
2021/10/01 04:49:45;;;;;;;4.53;1.08;;;12.60;90.00;;;;;;5091092;27;20056;-67
2021/10/01 04:52:11;;;;;;;4.13;1.25;;;12.60;90.00;;;;;;5108585;27;20039;-66
2021/10/01 04:54:37;;;;;;;5.60;1.30;;;12.60;90.00;;;;;;5098459;27;20043;-66
2021/10/01 04:57:03;;;;;;;6.40;1.45;;;12.50;89.90;;;;;;5109801;27;20058;-66
2021/10/01 04:59:29;;;;;;;6.10;1.35;;;12.50;89.80;;;;;;5109986;27;20176;-66
2021/10/01 05:01:55;;;;;;;6.30;1.00;;;12.50;89.80;;;;;;5102392;27;20044;-65
2021/10/01 05:04:20;;;;;;;6.65;1.25;;;12.40;89.70;;;;;;5105973;27;20396;-66
2021/10/01 05:06:46;;;;;;;4.68;1.17;;;12.40;89.70;;;;;;5109122;27;20505;-66
2021/10/01 05:09:12;;;;;;;4.68;1.20;;;12.40;89.70;;;;;;5107664;27;20047;-66
2021/10/01 05:11:37;;;;;;;10.07;1.27;;;12.40;89.60;;;;;;5108363;27;20119;-66
2021/10/01 05:14:03;;;;;;;7.72;1.10;;;12.40;89.30;;;;;;5093252;27;20051;-66
2021/10/01 05:16:29;;;;;;;5.18;1.13;;;12.40;89.20;;;;;;5106891;27;20080;-67
2021/10/01 05:18:55;;;;;;;6.50;1.00;;;12.40;89.10;;;;;;5102042;27;20059;-67
2021/10/01 05:21:20;;;;;;;5.07;0.88;;;12.40;89.00;;;;;;5105530;27;20047;-69
2021/10/01 05:23:46;;;;;;;3.42;1.33;;;12.40;88.90;;;;;;5105745;27;20044;-67
2021/10/01 05:26:12;;;;;;;5.70;1.25;;;12.30;89.00;;;;;;5106742;27;20491;-65
2021/10/01 05:28:38;;;;;;;5.72;1.33;;;12.30;89.10;;;;;;5095935;27;20043;-67
2021/10/01 05:31:03;;;;;;;4.72;1.27;;;12.30;89.10;;;;;;5104651;27;20035;-67
2021/10/01 05:33:29;;;;;;;4.80;1.40;;;12.30;88.80;;;;;;5078648;28;20036;-66
2021/10/01 05:35:55;;;;;;;4.35;1.05;;;12.30;88.60;;;;;;5101710;27;20066;-67
2021/10/01 05:38:24;;;;;;;8.95;1.73;;;12.30;88.80;;;;;;5100807;27;20054;-67
2021/10/01 05:40:49;;;;;;;4.13;1.10;;;12.20;88.60;;;;;;5110800;27;20086;-67
2021/10/01 05:43:16;;;;;;;7.57;1.02;;;12.30;88.40;;;;;;5104955;27;20130;-67
2021/10/01 05:45:42;;;;;;;7.25;1.17;;;12.20;88.30;;;;;;5099187;28;20051;-67
2021/10/01 05:48:08;;;;;;;7.50;1.33;;;12.30;88.20;;;;;;5077855;28;20098;-67
2021/10/01 05:50:38;;;;;;;8.70;1.40;;;12.30;88.00;;;;;;5102522;27;20052;-66
2021/10/01 05:53:05;;;;;;;7.10;1.95;;;12.30;87.80;;;;;;5102879;27;20052;-66
2021/10/01 05:55:31;;;;;;;5.95;1.30;;;12.30;87.70;;;;;;5104578;27;20036;-66
2021/10/01 05:57:58;;;;;;;11.20;1.48;;;12.30;87.90;;;;;;5101548;27;20038;-65
2021/10/01 06:00:24;;;;;;;8.27;1.73;;;12.30;87.70;;;;;;5101936;27;20040;-68
2021/10/01 06:02:50;;;;;;;5.53;1.20;;;12.30;87.70;;;;;;5079768;28;20035;-68
2021/10/01 06:05:15;;;;;;;6.03;1.10;;;12.30;87.60;;;;;;5109251;27;20040;-67
2021/10/01 06:07:42;;;;;;;4.70;1.10;;;12.30;87.70;;;;;;5105358;27;20039;-69
2021/10/01 06:10:09;;;;;;;4.13;1.02;;;12.20;87.80;;;;;;5092253;27;20395;-67
2021/10/01 06:12:35;;;;;;;7.07;1.73;;;12.30;87.80;;;;;;5103459;27;20627;-66
2021/10/01 06:15:02;;;;;;;5.20;0.93;;;12.30;87.70;;;;;;5104763;27;20856;-73
2021/10/01 06:17:28;;;;;;;6.05;1.70;;;12.30;87.70;;;;;;5084952;28;20032;-74
2021/10/01 06:19:54;;;;;;;4.15;1.33;;;12.30;87.80;;;;;;5086125;28;20050;-73
2021/10/01 06:22:20;;;;;;;7.25;1.48;;;12.30;87.70;;;;;;5106974;27;20475;-73
2021/10/01 06:24:45;;;;;;;5.95;1.10;;;12.30;87.70;;;;;;5106356;28;20062;-73
2021/10/01 06:27:14;;;;;;;4.13;1.35;;;12.30;87.60;;;;;;5109306;27;20131;-74
2021/10/01 06:29:39;;;;;;;6.25;1.17;;;12.30;87.70;;;;;;5103928;28;20415;-74
2021/10/01 06:32:05;;;;;;;6.30;1.02;;;12.30;87.60;;;;;;5104166;28;20062;-73
2021/10/01 06:34:31;;;;;;;4.10;1.13;;;12.30;87.60;;;;;;5102440;27;20043;-74
2021/10/01 06:36:57;;;;;;;5.22;1.30;;;12.30;87.70;;;;;;5063353;28;20040;-74
2021/10/01 06:39:22;;;;;;;6.20;1.23;;;12.30;87.70;;;;;;5086666;28;20043;-74
2021/10/01 06:41:49;;;;;;;5.10;1.38;;;12.40;87.40;;;;;;5106040;27;20168;-73
2021/10/01 06:44:22;;;;;;;4.55;1.05;;;12.40;87.00;;;;;;5112634;27;20125;-73
2021/10/01 06:46:51;;;;;;;5.40;1.38;;;12.50;87.10;;;;;;5114342;27;20402;-73
2021/10/01 07:35:11;;;;;;;7.20;1.20;;;13.20;84.40;;;;;;5096483;27;20048;-71
2021/10/01 08:18:50;;;;;;;6.25;1.20;;;14.00;82.60;;;;;;5106499;27;20051;-69
2021/10/01 08:21:17;;;;;;;3.80;1.00;;;14.00;82.50;;;;;;5111211;27;20514;-68
2021/10/01 08:23:43;;;;;;;3.42;0.90;;;14.20;82.50;;;;;;5106027;27;20046;-69
2021/10/01 08:26:09;;;;;;;6.90;1.33;;;14.30;81.90;;;;;;5101992;27;20035;-71
2021/10/01 08:28:34;;;;;;;7.22;1.67;;;14.30;81.40;;;;;;5106796;27;20052;-69
2021/10/01 08:31:00;;;;;;;6.80;1.25;;;14.30;81.40;;;;;;5086556;27;20079;-72
2021/10/01 08:33:26;;;;;;;8.63;1.40;;;14.30;81.10;;;;;;5106094;27;20039;-73
2021/10/01 08:35:52;;;;;;;5.13;0.90;;;14.40;81.50;;;;;;5109837;27;20051;-73
2021/10/01 08:38:18;;;;;;;4.30;1.52;;;14.40;81.50;;;;;;5106993;27;20036;-73
2021/10/01 08:40:43;;;;;;;8.30;1.10;;;14.50;81.00;;;;;;5095646;27;20057;-73
2021/10/01 08:43:11;;;;;;;7.15;1.10;;;14.60;81.30;;;;;;5080125;27;20096;-72
2021/10/01 08:45:37;;;;;;;12.43;5.97;;;14.70;80.90;;;;;;5097093;27;20031;-72
2021/10/01 08:48:03;;;;;;;5.95;0.90;;;14.80;80.80;;;;;;5080840;28;20040;-72
2021/10/01 08:50:30;;;;;;;4.75;1.17;;;14.90;80.60;;;;;;5097859;27;20054;-71
2021/10/01 08:52:59;;;;;;;4.38;0.90;;;14.90;79.80;;;;;;5096924;28;22137;-71
2021/10/01 08:55:29;;;;;;;5.65;1.13;;;15.00;80.00;;;;;;5101024;27;20035;-72
2021/10/01 08:57:54;;;;;;;3.60;1.00;;;15.00;79.80;;;;;;5093876;27;20690;-72
2021/10/01 09:00:20;;;;;;;4.82;1.17;;;15.00;79.40;;;;;;5108703;27;20044;-72
2021/10/01 09:02:46;;;;;;;7.00;1.10;;;15.00;79.10;;;;;;5083130;27;20846;-72
2021/10/01 09:05:12;;;;;;;4.10;1.00;;;15.10;78.90;;;;;;5106051;27;20028;-73
2021/10/01 09:07:38;;;;;;;2.60;1.02;;;15.20;79.60;;;;;;5104015;27;20041;-71
2021/10/01 09:10:09;;;;;;;5.72;1.15;;;15.30;79.50;;;;;;5107296;27;20044;-70
2021/10/01 09:12:35;;;;;;;4.20;1.10;;;15.40;78.50;;;;;;5109432;27;20390;-70
2021/10/01 09:15:00;;;;;;;5.70;1.48;;;15.40;78.90;;;;;;5089997;28;20036;-79
2021/10/01 09:17:30;;;;;;;10.10;1.27;;;15.30;79.00;;;;;;5093802;28;20425;-77
2021/10/01 09:19:58;;;;;;;3.95;1.08;;;15.30;78.60;;;;;;5103809;27;20076;-76
2021/10/01 09:22:24;;;;;;;6.45;1.35;;;15.20;78.80;;;;;;5108875;27;20047;-71
2021/10/01 09:24:49;;;;;;;4.78;1.23;;;15.20;79.00;;;;;;5105610;27;20048;-68
2021/10/01 09:27:15;;;;;;;4.10;0.93;;;15.20;79.30;;;;;;5077948;27;20039;-67
2021/10/01 09:29:41;;;;;;;6.15;1.20;;;15.20;79.50;;;;;;5098521;27;20071;-68
2021/10/01 09:32:15;;;;;;;4.45;1.02;;;15.20;79.50;;;;;;5098481;27;21083;-68
2021/10/01 09:34:46;;;;;;;5.57;1.40;;;15.30;79.40;;;;;;5104219;27;20043;-68
2021/10/01 09:37:14;;;;;;;4.30;0.85;;;15.40;79.20;;;;;;5111596;27;20177;-75
2021/10/01 09:39:51;;;;;;;4.78;0.95;;;15.30;79.20;;;;;;5113342;27;20039;-75
2021/10/01 09:42:28;;;;;;;4.80;1.02;;;15.20;78.40;;;;;;5108505;27;20487;-75
2021/10/01 09:44:59;;;;;;;6.53;1.20;;;15.20;79.40;;;;;;5102263;27;20071;-70
2021/10/01 09:47:35;;;;;;;5.53;1.52;;;15.20;79.70;;;;;;5098755;27;20051;-68
2021/10/01 09:50:09;;;;;;;4.47;0.98;;;15.20;79.80;;;;;;5083179;28;20103;-68
2021/10/01 09:52:53;;;;;;;3.78;0.90;;;15.30;79.50;;;;;;5107119;27;20141;-70
2021/10/01 09:55:27;;;;;;;6.78;1.10;;;15.40;79.50;;;;;;5103409;27;20079;-70
2021/10/01 09:58:00;;;;;;;6.20;1.40;;;15.50;79.50;;;;;;5107282;27;20031;-70
2021/10/01 10:00:39;;;;;;;;;;;15.50;78.70;;;;;;5103691;27;20051;-70
2021/10/01 10:03:08;;;;;;;3.90;1.00;;;15.40;79.30;;;;;;5102634;27;20545;-70
2021/10/01 10:05:52;;;;;;;4.47;1.58;;;15.40;79.20;;;;;;5103990;27;20047;-71
2021/10/01 10:08:18;;;;;;;3.47;1.00;;;15.30;79.70;;;;;;5104880;27;20043;-71
2021/10/01 10:10:45;;;;;;;6.50;0.88;;;15.30;80.10;;;;;;5101741;27;20545;-71
2021/10/01 10:13:11;;;;;;;3.40;0.90;;;15.40;79.40;;;;;;5089848;27;20046;-70
2021/10/01 10:15:37;;;;;;;5.55;1.20;;;15.40;79.80;;;;;;5108150;27;20031;-71
2021/10/01 10:18:02;;;;;;;4.53;1.10;;;15.40;80.00;;;;;;5102809;27;20115;-71
2021/10/01 10:20:28;;;;;;;6.55;1.00;;;15.40;80.20;;;;;;5102705;27;20036;-68
2021/10/01 10:22:54;;;;;;;6.38;1.23;;;15.50;80.30;;;;;;5102851;27;20031;-68
2021/10/01 10:25:21;;;;;;;4.25;0.93;;;15.50;80.10;;;;;;5106278;27;20047;-68
2021/10/01 10:27:47;;;;;;;4.68;0.85;;;15.40;80.40;;;;;;5090776;28;20035;-68
2021/10/01 10:30:16;;;;;;;4.60;0.98;;;15.50;80.40;;;;;;5102634;27;20047;-67
2021/10/01 10:32:42;;;;;;;9.63;1.65;;;15.50;80.40;;;;;;5104564;27;20507;-71
2021/10/01 10:35:08;;;;;;;5.28;1.10;;;15.60;80.40;;;;;;5105576;27;20104;-72
2021/10/01 10:37:42;;;;;;;6.15;0.98;;;15.60;80.20;;;;;;5103458;27;20043;-70
2021/10/01 10:40:09;;;;;;;4.28;1.02;;;15.60;79.70;;;;;;5079631;28;20122;-70
2021/10/01 10:42:44;;;;;;;5.82;1.23;;;15.80;80.20;;;;;;5076024;28;20032;-71
2021/10/01 10:45:25;;;;;;;6.32;0.90;;;15.80;79.30;;;;;;5088276;28;20515;-69
2021/10/01 10:47:51;;;;;;;6.40;1.25;;;15.90;79.20;;;;;;5109413;28;20051;-70
2021/10/01 10:50:29;;;;;;;6.47;1.13;;;15.90;79.60;;;;;;5103137;28;20065;-70
2021/10/01 10:53:04;;;;;;;6.07;1.13;;;16.00;79.20;;;;;;5103851;27;20050;-69
2021/10/01 10:55:31;;;;;;;5.60;1.05;;;16.00;79.20;;;;;;5097300;28;20028;-71
2021/10/01 10:57:57;;;;;;;5.22;0.90;;;16.10;78.90;;;;;;5105488;28;20884;-71
2021/10/01 11:00:39;;;;;;;4.05;0.80;;;16.10;79.10;;;;;;5103755;28;20039;-70
2021/10/01 11:03:22;;;;;;;4.63;1.00;;;16.20;80.00;;;;;;5102530;27;20048;-69
2021/10/01 11:06:07;;;;;;;;;;;16.10;79.30;;;;;;5092891;28;20048;-69
2021/10/01 11:08:34;;;;;;;5.30;1.23;;;16.10;80.30;;;;;;5105825;27;20302;-69
2021/10/01 11:11:00;;;;;;;5.63;1.42;;;16.10;80.50;;;;;;5107143;27;20425;-72
2021/10/01 11:13:26;;;;;;;5.10;1.40;;;16.10;80.10;;;;;;5101731;28;20043;-70
2021/10/01 11:16:13;;;;;;;5.43;1.20;;;16.20;80.20;;;;;;5106352;27;20036;-70
2021/10/01 11:18:45;;;;;;;4.88;1.25;;;16.20;80.10;;;;;;5102905;28;20123;-69
2021/10/01 11:24:10;;;;;;;8.55;1.30;;;16.20;79.80;;;;;;5106433;27;20913;-69
2021/10/01 11:26:51;;;;;;;5.20;0.75;;;16.30;80.50;;;;;;5100906;27;20494;-68
2021/10/01 11:29:28;;;;;;;5.28;0.95;;;16.30;80.60;;;;;;5099818;27;20097;-63
2021/10/01 11:32:01;;;;;;;6.88;0.98;;;16.30;80.90;;;;;;5107246;27;20036;-63
2021/10/01 11:34:36;;;;;;;5.50;1.00;;;16.30;80.60;;;;;;5107288;27;20372;-63
2021/10/01 11:37:02;;;;;;;4.55;1.30;;;16.20;79.70;;;;;;5109378;27;20046;-62
2021/10/01 11:39:27;;;;;;;6.40;1.33;;;16.20;79.70;;;;;;5094358;27;20424;-63
2021/10/01 11:41:54;;;;;;;5.30;0.90;;;16.20;80.30;;;;;;5106862;27;20044;-63
2021/10/01 11:44:23;;;;;;;6.82;0.80;;;16.10;80.60;;;;;;5104726;27;20051;-63
2021/10/01 11:46:50;;;;;;;4.97;1.13;;;16.20;80.80;;;;;;5110559;27;20059;-63
2021/10/01 11:49:27;;;;;;;4.45;1.60;;;16.20;81.00;;;;;;5109509;27;20136;-63
2021/10/01 11:52:04;;;;;;;7.18;1.67;;;16.20;81.00;;;;;;5107431;27;20122;-63
2021/10/01 11:54:31;;;;;;;5.63;1.63;;;16.20;81.00;;;;;;5109796;27;20123;-63
2021/10/01 11:57:08;;;;;;;8.10;2.05;;;16.20;81.50;;;;;;5113480;27;20434;-64
2021/10/01 11:59:57;;;;;;;7.03;1.23;;;16.20;80.90;;;;;;5109971;27;20455;-66
2021/10/01 12:02:41;;;;;;;5.35;1.27;;;16.30;81.00;;;;;;5098888;27;20046;-64
2021/10/01 12:05:27;;;;;;;6.80;1.65;;;16.30;80.90;;;;;;5109938;27;20050;-63
2021/10/01 12:07:57;;;;;;;4.28;1.20;;;16.20;80.20;;;;;;5105983;27;20122;-63
2021/10/01 12:10:25;;;;;;;10.90;1.45;;;16.20;80.90;;;;;;5102315;27;20047;-63
2021/10/01 12:13:13;;;;;;;6.35;1.60;;;16.30;80.80;;;;;;5099151;27;20036;-63
2021/10/01 12:15:49;;;;;;;7.35;1.55;;;16.30;80.70;;;;;;5083147;27;20047;-63
2021/10/01 12:18:25;;;;;;;8.27;1.58;;;16.20;80.20;;;;;;5109517;27;20046;-63
2021/10/01 12:20:52;;;;;;;7.55;1.30;;;16.10;80.30;;;;;;5106528;27;20048;-65
2021/10/01 12:23:21;;;;;;;7.38;1.75;;;16.20;80.80;;;;;;5108950;27;20046;-65
2021/10/01 12:25:47;;;;;;;3.33;0.85;;;16.10;80.60;;;;;;5099439;27;20140;-67
2021/10/01 12:28:13;;;;;;;3.30;0.90;;;16.10;81.00;;;;;;5096335;27;20039;-64
2021/10/01 12:30:38;;;;;;;4.47;1.13;;;16.10;81.40;;;;;;5099460;27;20380;-64
2021/10/01 12:33:05;;;;;;;6.00;1.33;;;16.00;81.40;;;;;;5106214;27;20123;-65
2021/10/01 12:35:31;;;;;;;5.78;1.35;;;16.00;81.80;;;;;;5109860;27;20102;-66
2021/10/01 12:37:56;;;;;;;6.32;1.48;;;15.90;82.80;;;;;;5101314;27;20493;-63
2021/10/01 12:40:22;;;;;;;3.92;1.00;;;15.90;82.50;;;;;;5106410;27;20062;-64
2021/10/01 12:42:52;;;;;;;3.97;1.20;;;15.90;81.90;;;;;;5109177;27;20050;-66
2021/10/01 12:45:19;;;;;;;5.95;1.13;;;15.80;82.30;;;;;;5103769;27;20044;-65
2021/10/01 12:47:48;;;;;;;3.38;1.30;;;15.70;82.50;;;;;;5081089;27;20836;-64
2021/10/01 12:50:14;;;;;;;9.43;1.42;;;15.70;83.50;;;;;;5108700;27;20079;-63
2021/10/01 12:52:44;;;;;;;5.20;1.30;;;15.70;84.60;;;;;;5107390;27;20482;-62
2021/10/01 12:55:12;;;;;;;5.47;1.35;;;15.60;85.50;;;;;;5104615;27;20118;-62
2021/10/01 12:57:43;;;;;;;6.70;1.30;;;15.50;86.40;;;;;;5107589;27;20121;-63
2021/10/01 13:00:21;;;;;;;5.68;1.42;;;15.50;87.70;;;;;;5110788;27;20051;-63
2021/10/01 13:03:00;;;;;;;5.32;1.70;;;15.50;88.40;;;;;;5105917;27;20043;-64
2021/10/01 13:05:29;;;;;;;7.00;1.70;;;15.40;88.30;;;;;;5107041;27;20040;-63
2021/10/01 13:07:58;;;;;;;8.57;1.42;;;15.40;88.80;;;;;;5109042;27;20039;-63
2021/10/01 13:10:26;;;;;;;4.53;1.30;;;15.40;88.90;;;;;;5097929;27;20092;-63
2021/10/01 13:13:17;;;;;;;6.07;1.55;;;15.30;89.10;;;;;;5096492;28;20066;-63
2021/10/01 13:15:51;;;;;;;5.82;1.65;;;15.40;89.40;;;;;;5101195;27;20083;-61
2021/10/01 13:18:21;;;;;;;6.95;1.85;;;15.40;88.90;;;;;;5111297;27;20043;-61
2021/10/01 13:20:54;;;;;;;4.80;1.35;;;15.30;89.20;;;;;;5107786;27;20051;-62
2021/10/01 13:23:31;;;;;;;;;;;15.20;89.20;;;;;;5106259;27;20047;-62
2021/10/01 13:25:59;;;;;;;4.65;1.52;;;15.20;89.10;;;;;;5107131;27;20007;-61
2021/10/01 13:28:27;;;;;;;4.97;1.88;;;15.30;89.60;;;;;;5109842;27;20414;-61
2021/10/01 13:30:53;;;;;;;6.47;1.10;;;15.30;89.90;;;;;;5101272;27;20114;-64
2021/10/01 13:33:23;;;;;;;4.50;1.75;;;15.50;89.60;;;;;;5106461;27;20027;-64
2021/10/01 13:35:50;;;;;;;6.30;1.70;;;15.50;89.60;;;;;;5098142;27;20051;-65
2021/10/01 13:38:16;;;;;;;9.40;2.20;;;15.50;89.80;;;;;;5098683;27;20534;-63
2021/10/01 13:40:42;;;;;;;6.63;1.70;;;15.50;90.00;;;;;;5106070;27;20060;-63
2021/10/01 13:43:09;;;;;;;5.47;2.28;;;15.40;90.00;;;;;;5109174;27;20051;-64
2021/10/01 13:45:35;;;;;;;6.97;1.75;;;15.30;90.20;;;;;;5106780;27;20053;-63
2021/10/01 13:48:01;;;;;;;10.77;2.50;;;15.30;90.40;;;;;;5091742;28;20040;-63
2021/10/01 13:50:27;;;;;;;5.22;1.60;;;15.10;90.60;;;;;;5105370;27;20059;-64
2021/10/01 13:52:53;;;;;;;5.15;1.67;;;15.10;90.90;;;;;;5111335;27;20082;-63
2021/10/01 13:55:19;;;;;;;7.38;2.00;;;15.10;91.10;;;;;;5100280;27;20118;-62
2021/10/01 13:57:45;;;;;;;7.63;2.08;;;15.00;91.20;;;;;;5095662;28;20178;-63
2021/10/01 14:00:14;;;;;;;5.93;1.60;;;15.00;91.30;;;;;;5104289;27;20039;-64
2021/10/01 14:02:42;;;;;;;5.35;1.70;;;15.10;91.50;;;;;;5081649;28;20142;-62
2021/10/01 14:05:10;;;;;;;6.47;2.10;;;15.40;91.50;;;;;;5104919;27;20549;-62
2021/10/01 14:07:38;;;;;;;8.23;2.15;;;15.60;91.20;;;;;;5106414;27;20121;-59
2021/10/01 14:10:09;;;;;;;6.88;1.88;;;15.70;90.70;;;;;;5103463;27;20078;-60
2021/10/01 14:12:35;;;;;;;4.15;1.85;;;15.70;90.70;;;;;;5102270;27;20043;-63
2021/10/01 14:15:01;;;;;;;5.97;2.10;;;15.70;90.70;;;;;;5086822;27;20391;-61
2021/10/01 14:17:26;;;;;;;5.10;2.20;;;15.80;90.60;;;;;;5080335;28;20043;-61
2021/10/01 14:19:52;;;;;;;5.53;2.08;;;15.80;90.50;;;;;;5098493;28;20040;-63
2021/10/01 14:22:19;;;;;;;6.28;1.65;;;15.70;90.50;;;;;;5106990;27;20075;-59
2021/10/01 14:24:45;;;;;;;7.90;1.48;;;15.60;90.60;;;;;;5102521;27;20109;-60
2021/10/01 14:27:11;;;;;;;7.57;1.42;;;15.40;90.20;;;;;;5104192;27;20101;-62